createdAt,value
2019-05-29T00:00:26.837Z,99.90
2019-05-29T00:02:55.230Z,99.90
2019-05-29T00:05:43.115Z,99.90
2019-05-29T00:08:12.326Z,99.90
2019-05-29T00:10:41.225Z,99.90
2019-05-29T00:13:10.275Z,99.90
2019-05-29T00:15:38.750Z,99.90
2019-05-29T00:18:08.238Z,99.90
2019-05-29T00:20:36.843Z,99.90
2019-05-29T00:23:06.404Z,99.90
2019-05-29T00:25:34.816Z,99.90
2019-05-29T00:28:03.346Z,99.90
2019-05-29T00:30:31.746Z,99.90
2019-05-29T00:33:00.173Z,99.90
2019-05-29T00:35:29.046Z,99.90
2019-05-29T00:37:57.446Z,99.90
2019-05-29T00:40:26.076Z,99.90
2019-05-29T00:42:54.484Z,99.90
2019-05-29T00:45:22.856Z,99.90
2019-05-29T00:47:51.222Z,99.90
2019-05-29T00:50:19.663Z,99.90
2019-05-29T00:52:48.061Z,99.90
2019-05-29T00:55:16.852Z,99.90
2019-05-29T00:57:45.377Z,99.90
2019-05-29T01:00:13.797Z,99.90
2019-05-29T01:02:43.371Z,99.90
2019-05-29T01:05:12.022Z,99.90
2019-05-29T01:07:40.433Z,99.90
2019-05-29T01:10:08.855Z,99.90
2019-05-29T01:12:37.266Z,99.90
2019-05-29T01:15:06.191Z,99.90
2019-05-29T01:17:34.562Z,99.90
2019-05-29T01:20:02.986Z,99.90
2019-05-29T01:22:31.453Z,99.90
2019-05-29T01:24:59.868Z,99.90
2019-05-29T01:27:28.333Z,99.90
2019-05-29T01:29:56.785Z,99.90
2019-05-29T01:32:25.242Z,99.90
2019-05-29T01:34:53.676Z,99.90
2019-05-29T01:37:22.338Z,99.90
2019-05-29T01:39:50.826Z,99.90
2019-05-29T01:42:19.444Z,99.90
2019-05-29T01:44:48.320Z,99.90
2019-05-29T01:47:17.423Z,99.90
2019-05-29T01:49:45.817Z,99.90
2019-05-29T01:52:15.458Z,99.90
2019-05-29T01:54:43.942Z,99.90
2019-05-29T01:57:12.372Z,99.90
2019-05-29T01:59:40.746Z,99.90
2019-05-29T02:02:09.183Z,99.90
2019-05-29T02:04:37.623Z,99.90
2019-05-29T02:07:06.090Z,99.90
2019-05-29T02:09:34.446Z,99.90
2019-05-29T02:12:02.939Z,99.90
2019-05-29T02:14:31.305Z,99.90
2019-05-29T02:16:59.730Z,99.90
2019-05-29T02:19:28.264Z,99.90
2019-05-29T02:21:56.678Z,99.90
2019-05-29T02:24:25.413Z,99.90
2019-05-29T02:26:53.877Z,99.90
2019-05-29T02:29:22.965Z,99.90
2019-05-29T02:31:51.390Z,99.90
2019-05-29T02:34:20.145Z,99.90
2019-05-29T02:36:49.159Z,99.90
2019-05-29T02:39:18.692Z,99.90
2019-05-29T02:41:47.723Z,99.90
2019-05-29T02:44:16.170Z,99.90
2019-05-29T02:46:44.578Z,99.90
2019-05-29T02:49:13.586Z,99.90
2019-05-29T02:51:42.009Z,99.90
2019-05-29T02:54:10.406Z,99.90
2019-05-29T02:56:42.249Z,99.90
2019-05-29T02:59:09.120Z,99.90
2019-05-29T03:01:37.500Z,99.90
2019-05-29T03:04:05.911Z,99.90
2019-05-29T03:06:34.271Z,99.90
2019-05-29T03:09:05.125Z,99.90
2019-05-29T03:11:33.718Z,99.90
2019-05-29T03:14:02.104Z,99.90
2019-05-29T03:16:32.033Z,99.90
2019-05-29T03:19:00.578Z,99.90
2019-05-29T03:21:30.531Z,99.90
2019-05-29T03:23:59.015Z,99.90
2019-05-29T03:26:29.436Z,99.90
2019-05-29T03:28:57.428Z,99.90
2019-05-29T03:31:30.012Z,99.90
2019-05-29T03:33:55.884Z,99.90
2019-05-29T03:36:27.374Z,99.90
2019-05-29T03:38:54.362Z,99.90
2019-05-29T03:41:22.712Z,99.90
2019-05-29T03:43:51.065Z,99.90
2019-05-29T03:46:31.785Z,99.90
2019-05-29T03:48:50.618Z,99.90
2019-05-29T03:51:18.954Z,99.90
2019-05-29T03:53:47.375Z,99.90
2019-05-29T03:56:15.741Z,99.90
2019-05-29T03:58:44.238Z,99.90
2019-05-29T04:01:12.706Z,99.90
2019-05-29T04:03:41.066Z,99.90
2019-05-29T04:06:09.513Z,99.90
2019-05-29T04:08:38.609Z,99.90
2019-05-29T04:11:07.338Z,99.90
2019-05-29T04:13:36.183Z,99.90
2019-05-29T04:16:05.745Z,99.90
2019-05-29T04:18:35.830Z,99.90
2019-05-29T04:21:04.418Z,99.90
2019-05-29T04:23:34.185Z,99.90
2019-05-29T04:26:03.059Z,99.90
2019-05-29T04:28:32.349Z,99.90
2019-05-29T04:31:01.861Z,99.90
2019-05-29T04:33:30.615Z,99.90
2019-05-29T04:36:00.506Z,99.90
2019-05-29T04:38:30.916Z,99.90
2019-05-29T04:40:58.934Z,99.90
2019-05-29T04:43:28.799Z,99.90
2019-05-29T04:45:58.350Z,99.90
2019-05-29T04:48:26.727Z,99.90
2019-05-29T04:50:55.138Z,99.90
2019-05-29T04:53:23.637Z,99.90
2019-05-29T04:55:52.165Z,99.90
2019-05-29T04:58:20.514Z,99.90
2019-05-29T05:00:58.489Z,99.90
2019-05-29T05:03:18.938Z,99.90
2019-05-29T05:05:47.335Z,99.90
2019-05-29T05:08:15.696Z,99.90
2019-05-29T05:10:44.026Z,99.90
2019-05-29T05:13:12.384Z,99.90
2019-05-29T05:15:40.788Z,99.90
2019-05-29T05:18:10.812Z,99.90
2019-05-29T05:20:58.610Z,99.90
2019-05-29T05:23:27.079Z,99.90
2019-05-29T05:25:55.467Z,99.90
2019-05-29T05:28:23.847Z,99.90
2019-05-29T05:30:52.286Z,99.90
2019-05-29T05:33:20.793Z,99.90
2019-05-29T05:35:49.344Z,99.90
2019-05-29T05:38:17.744Z,99.90
2019-05-29T05:40:46.177Z,99.90
2019-05-29T05:43:23.613Z,99.90
2019-05-29T05:45:44.559Z,99.90
2019-05-29T05:48:13.034Z,99.90
2019-05-29T05:50:41.577Z,99.90
2019-05-29T05:53:09.943Z,99.90
2019-05-29T05:55:39.677Z,99.90
2019-05-29T05:58:08.181Z,99.90
2019-05-29T06:00:38.019Z,99.90
2019-05-29T06:03:06.445Z,99.90
2019-05-29T06:05:35.971Z,99.90
2019-05-29T06:08:04.612Z,99.90
2019-05-29T06:10:33.938Z,99.90
2019-05-29T06:13:02.987Z,99.90
2019-05-29T06:15:32.341Z,99.90
2019-05-29T06:18:19.783Z,99.90
2019-05-29T06:20:32.534Z,99.90
2019-05-29T06:23:01.146Z,99.90
2019-05-29T06:25:29.509Z,99.90
2019-05-29T06:27:57.948Z,99.90
2019-05-29T06:30:26.316Z,99.90
2019-05-29T06:32:54.703Z,99.90
2019-05-29T06:35:23.068Z,99.90
2019-05-29T06:37:51.475Z,99.90
2019-05-29T06:40:38.238Z,99.90
2019-05-29T06:43:18.914Z,99.90
2019-05-29T06:45:47.280Z,99.90
2019-05-29T06:48:41.379Z,99.90
2019-05-29T06:50:57.488Z,99.90
2019-05-29T06:53:25.329Z,99.90
2019-05-29T06:56:12.048Z,99.90
2019-05-29T06:58:40.460Z,99.90
2019-05-29T07:01:08.853Z,99.90
2019-05-29T07:03:37.593Z,99.90
2019-05-29T07:06:06.231Z,99.90
2019-05-29T07:08:39.934Z,99.90
2019-05-29T07:11:04.659Z,99.90
2019-05-29T07:13:35.092Z,99.90
2019-05-29T07:16:03.114Z,99.90
2019-05-29T07:18:31.574Z,99.90
2019-05-29T07:21:00.021Z,99.90
2019-05-29T07:23:28.464Z,99.90
2019-05-29T07:25:56.871Z,99.90
2019-05-29T07:28:25.278Z,99.90
2019-05-29T07:31:01.717Z,99.90
2019-05-29T07:33:23.717Z,99.90
2019-05-29T07:38:19.590Z,99.90
2019-05-29T07:40:50.669Z,99.90
2019-05-29T07:43:20.010Z,99.90
2019-05-29T07:45:48.395Z,99.90
2019-05-29T07:48:36.289Z,99.90
2019-05-29T07:51:07.243Z,99.90
2019-05-29T07:53:34.861Z,99.90
2019-05-29T07:56:03.237Z,99.90
2019-05-29T07:58:56.680Z,99.90
2019-05-29T08:01:17.329Z,99.90
2019-05-29T08:03:47.294Z,99.90
2019-05-29T08:06:16.128Z,99.90
2019-05-29T08:08:45.294Z,99.90
2019-05-29T08:11:13.886Z,99.90
2019-05-29T08:13:42.207Z,99.90
2019-05-29T08:16:10.579Z,99.90
2019-05-29T08:18:41.126Z,99.90
2019-05-29T08:21:09.049Z,99.90
2019-05-29T08:23:37.414Z,99.90
2019-05-29T08:26:08.618Z,99.90
2019-05-29T08:28:36.995Z,99.90
2019-05-29T08:31:05.453Z,99.90
2019-05-29T08:33:33.954Z,99.90
2019-05-29T08:36:04.384Z,99.90
2019-05-29T08:38:33.887Z,99.90
2019-05-29T08:41:05.698Z,99.90
2019-05-29T08:43:32.310Z,99.90
2019-05-29T08:46:00.716Z,99.90
2019-05-29T08:48:29.129Z,99.90
2019-05-29T08:50:57.535Z,99.90
2019-05-29T08:53:25.941Z,99.90
2019-05-29T08:55:54.351Z,99.90
2019-05-29T08:58:22.759Z,99.90
2019-05-29T09:00:54.793Z,99.90
2019-05-29T09:03:21.410Z,99.90
2019-05-29T09:06:04.958Z,99.90
2019-05-29T09:08:19.810Z,99.90
2019-05-29T09:10:49.405Z,99.90
2019-05-29T09:13:18.098Z,99.90
2019-05-29T09:15:46.478Z,99.90
2019-05-29T09:18:15.085Z,99.90
2019-05-29T09:21:02.267Z,99.90
2019-05-29T09:23:14.933Z,99.90
2019-05-29T09:25:43.466Z,99.90
2019-05-29T09:28:14.687Z,99.90
2019-05-29T09:30:44.069Z,99.20
2019-05-29T09:33:15.225Z,99.90
2019-05-29T09:35:42.858Z,99.50
2019-05-29T09:38:11.230Z,99.50
2019-05-29T09:40:39.674Z,99.90
2019-05-29T09:43:08.097Z,99.90
2019-05-29T09:45:36.505Z,99.80
2019-05-29T09:48:05.167Z,99.90
2019-05-29T09:50:49.559Z,99.90
2019-05-29T09:53:04.202Z,99.90
2019-05-29T09:55:32.802Z,99.90
2019-05-29T09:58:01.217Z,99.90
2019-05-29T10:00:29.546Z,99.90
2019-05-29T10:02:59.318Z,99.90
2019-05-29T10:05:28.105Z,99.90
2019-05-29T10:07:57.773Z,99.80
2019-05-29T10:10:27.347Z,99.90
2019-05-29T10:12:56.469Z,97.20
2019-05-29T10:15:26.471Z,96.90
2019-05-29T10:17:55.871Z,96.50
2019-05-29T10:20:24.910Z,95.80
2019-05-29T10:22:53.310Z,94.30
2019-05-29T10:25:21.699Z,95.40
2019-05-29T10:27:50.063Z,95.60
2019-05-29T10:30:18.472Z,94.50
2019-05-29T10:32:48.044Z,94.20
2019-05-29T10:35:16.542Z,93.60
2019-05-29T10:37:44.967Z,94.20
2019-05-29T10:40:13.421Z,93.40
2019-05-29T10:42:42.987Z,90.90
2019-05-29T10:45:11.881Z,90.70
2019-05-29T10:47:40.237Z,90.40
2019-05-29T10:50:10.330Z,91.00
2019-05-29T10:52:39.125Z,92.40
2019-05-29T10:55:07.585Z,90.90
2019-05-29T10:57:36.051Z,90.90
2019-05-29T11:00:08.434Z,90.90
2019-05-29T11:02:36.797Z,89.90
2019-05-29T11:05:05.938Z,90.30
2019-05-29T11:07:34.255Z,89.40
2019-05-29T11:10:02.621Z,90.10
2019-05-29T11:12:31.025Z,85.20
2019-05-29T11:14:59.434Z,87.80
2019-05-29T11:17:27.852Z,87.80
2019-05-29T11:19:58.079Z,89.20
2019-05-29T11:22:26.844Z,87.60
2019-05-29T11:24:56.627Z,88.60
2019-05-29T11:27:26.150Z,86.90
2019-05-29T11:29:55.214Z,86.50
2019-05-29T11:32:23.647Z,85.90
2019-05-29T11:34:53.690Z,86.80
2019-05-29T11:37:22.251Z,86.20
2019-05-29T11:39:50.604Z,84.40
2019-05-29T11:42:27.195Z,86.10
2019-05-29T11:44:50.879Z,87.60
2019-05-29T11:47:19.339Z,84.60
2019-05-29T11:49:47.741Z,81.00
2019-05-29T11:52:24.252Z,80.60
2019-05-29T11:54:46.117Z,82.80
2019-05-29T11:57:14.552Z,85.30
2019-05-29T11:59:42.906Z,82.80
2019-05-29T12:02:11.527Z,80.70
2019-05-29T12:04:39.962Z,81.00
2019-05-29T12:07:08.339Z,78.00
2019-05-29T12:09:36.831Z,77.20
2019-05-29T12:12:05.233Z,77.20
2019-05-29T12:14:33.543Z,76.50
2019-05-29T12:17:02.705Z,75.60
2019-05-29T12:19:31.345Z,74.70
2019-05-29T12:22:00.576Z,73.30
2019-05-29T12:24:29.088Z,76.30
2019-05-29T12:26:58.549Z,73.10
2019-05-29T12:29:27.041Z,72.40
2019-05-29T12:31:56.974Z,68.80
2019-05-29T12:34:25.604Z,72.20
2019-05-29T12:36:55.257Z,71.80
2019-05-29T12:39:23.715Z,71.00
2019-05-29T12:41:53.227Z,67.60
2019-05-29T12:44:21.694Z,67.10
2019-05-29T12:46:50.059Z,69.60
2019-05-29T12:49:18.453Z,68.10
2019-05-29T12:51:46.783Z,62.90
2019-05-29T12:54:15.139Z,64.70
2019-05-29T12:56:43.570Z,68.60
2019-05-29T12:59:11.924Z,68.70
2019-05-29T13:01:40.352Z,68.80
2019-05-29T13:04:08.712Z,64.80
2019-05-29T13:06:37.083Z,63.00
2019-05-29T13:09:07.919Z,64.30
2019-05-29T13:11:36.369Z,65.00
2019-05-29T13:14:04.816Z,66.10
2019-05-29T13:16:33.178Z,69.00
2019-05-29T13:19:03.065Z,61.10
2019-05-29T13:21:31.685Z,64.00
2019-05-29T13:24:02.262Z,66.20
2019-05-29T13:26:30.093Z,64.60
2019-05-29T13:28:59.698Z,63.00
2019-05-29T13:31:28.199Z,63.00
2019-05-29T13:33:57.544Z,61.00
2019-05-29T13:36:26.262Z,60.00
2019-05-29T13:38:55.876Z,60.60
2019-05-29T13:41:24.421Z,60.40
2019-05-29T13:43:52.805Z,57.80
2019-05-29T13:46:21.224Z,58.80
2019-05-29T13:48:49.636Z,59.80
2019-05-29T13:51:18.104Z,61.30
2019-05-29T13:54:01.968Z,62.40
2019-05-29T13:56:16.493Z,59.10
2019-05-29T13:58:44.931Z,59.40
2019-05-29T14:01:13.323Z,60.50
2019-05-29T14:03:41.674Z,59.30
2019-05-29T14:06:10.143Z,58.80
2019-05-29T14:08:38.544Z,60.90
2019-05-29T14:11:07.278Z,59.70
2019-05-29T14:13:35.881Z,59.70
2019-05-29T14:16:04.349Z,57.80
2019-05-29T14:18:32.655Z,57.00
2019-05-29T14:21:01.027Z,55.40
2019-05-29T14:23:29.434Z,57.20
2019-05-29T14:25:57.831Z,57.40
2019-05-29T14:28:26.243Z,55.80
2019-05-29T14:30:54.646Z,56.20
2019-05-29T14:33:23.051Z,52.80
2019-05-29T14:35:51.411Z,52.60
2019-05-29T14:38:19.873Z,53.90
2019-05-29T14:40:48.225Z,52.90
2019-05-29T14:43:16.616Z,51.10
2019-05-29T14:48:13.224Z,50.50
2019-05-29T14:50:41.803Z,51.10
2019-05-29T14:53:11.395Z,51.30
2019-05-29T14:55:40.308Z,51.00
2019-05-29T14:58:09.769Z,49.60
2019-05-29T15:00:38.190Z,50.00
2019-05-29T15:03:07.351Z,48.50
2019-05-29T15:05:35.910Z,49.10
2019-05-29T15:08:05.680Z,49.90
2019-05-29T15:10:34.261Z,49.70
2019-05-29T15:13:04.121Z,48.30
2019-05-29T15:15:32.673Z,49.70
2019-05-29T15:18:01.059Z,49.60
2019-05-29T15:20:29.426Z,48.50
2019-05-29T15:22:57.919Z,49.60
2019-05-29T15:25:26.346Z,49.30
2019-05-29T15:27:54.735Z,48.70
2019-05-29T15:30:24.030Z,47.90
2019-05-29T15:32:52.712Z,49.10
2019-05-29T15:35:22.062Z,50.00
2019-05-29T15:37:50.497Z,50.70
2019-05-29T15:40:19.451Z,51.20
2019-05-29T15:42:47.818Z,50.00
2019-05-29T15:45:19.138Z,51.70
2019-05-29T15:47:48.062Z,52.70
2019-05-29T15:50:17.960Z,52.10
2019-05-29T15:52:46.628Z,51.40
2019-05-29T15:55:32.232Z,52.30
2019-05-29T15:57:45.951Z,53.00
2019-05-29T16:00:15.632Z,53.80
2019-05-29T16:02:48.256Z,54.30
2019-05-29T16:05:15.445Z,55.30
2019-05-29T16:07:44.138Z,55.40
2019-05-29T16:10:16.670Z,55.20
2019-05-29T16:12:43.296Z,55.80
2019-05-29T16:15:13.286Z,55.90
2019-05-29T16:17:41.958Z,56.30
2019-05-29T16:20:10.586Z,56.10
2019-05-29T16:22:39.411Z,57.70
2019-05-29T16:25:07.940Z,57.30
2019-05-29T16:27:36.370Z,59.10
2019-05-29T16:30:08.329Z,59.30
2019-05-29T16:32:36.823Z,59.60
2019-05-29T16:35:08.186Z,59.50
2019-05-29T16:37:36.624Z,59.80
2019-05-29T16:40:09.371Z,60.00
2019-05-29T16:42:37.748Z,60.70
2019-05-29T16:45:08.980Z,61.20
2019-05-29T16:47:37.418Z,60.50
2019-05-29T16:50:07.184Z,60.90
2019-05-29T16:52:35.613Z,61.50
2019-05-29T16:55:04.571Z,62.60
2019-05-29T16:57:32.962Z,62.90
2019-05-29T17:00:01.360Z,63.80
2019-05-29T17:02:29.765Z,63.70
2019-05-29T17:04:58.459Z,64.20
2019-05-29T17:07:26.895Z,63.60
2019-05-29T17:09:55.296Z,65.00
2019-05-29T17:12:24.715Z,66.20
2019-05-29T17:14:53.345Z,67.10
2019-05-29T17:17:22.692Z,67.50
2019-05-29T17:20:03.883Z,68.50
2019-05-29T17:22:32.289Z,69.30
2019-05-29T17:25:00.658Z,69.90
2019-05-29T17:27:29.138Z,70.90
2019-05-29T17:29:57.511Z,71.80
2019-05-29T17:32:25.885Z,72.30
2019-05-29T17:34:54.353Z,71.20
2019-05-29T17:37:23.156Z,72.80
2019-05-29T17:39:51.682Z,73.10
2019-05-29T17:42:20.302Z,73.90
2019-05-29T17:44:48.655Z,74.40
2019-05-29T17:47:17.729Z,74.70
2019-05-29T17:49:46.173Z,74.80
2019-05-29T17:52:15.638Z,75.40
2019-05-29T17:54:44.150Z,75.80
2019-05-29T17:57:12.528Z,76.10
2019-05-29T17:59:40.929Z,76.90
2019-05-29T18:02:09.336Z,76.90
2019-05-29T18:04:37.722Z,76.90
2019-05-29T18:07:06.223Z,78.00
2019-05-29T18:09:34.621Z,77.60
2019-05-29T18:12:03.041Z,78.70
2019-05-29T18:14:31.504Z,78.70
2019-05-29T18:16:59.889Z,78.60
2019-05-29T18:19:28.361Z,79.20
2019-05-29T18:21:56.930Z,80.10
2019-05-29T18:24:26.079Z,79.80
2019-05-29T18:26:54.454Z,80.50
2019-05-29T18:29:23.967Z,80.20
2019-05-29T18:31:52.740Z,81.00
2019-05-29T18:34:21.169Z,81.10
2019-05-29T18:36:49.592Z,81.30
2019-05-29T18:39:20.089Z,80.80
2019-05-29T18:41:48.590Z,80.90
2019-05-29T18:44:16.920Z,81.30
2019-05-29T18:46:45.329Z,81.60
2019-05-29T18:49:14.740Z,82.40
2019-05-29T18:51:43.415Z,82.50
2019-05-29T18:54:11.773Z,82.50
2019-05-29T18:56:40.114Z,83.30
2019-05-29T18:59:08.587Z,83.80
2019-05-29T19:01:36.982Z,84.00
2019-05-29T19:04:05.385Z,84.00
2019-05-29T19:06:33.849Z,85.00
2019-05-29T19:09:02.208Z,85.70
2019-05-29T19:11:31.904Z,85.50
2019-05-29T19:14:00.510Z,84.90
2019-05-29T19:16:29.971Z,85.50
2019-05-29T19:18:58.497Z,85.50
2019-05-29T19:21:26.959Z,86.90
2019-05-29T19:23:55.380Z,87.30
2019-05-29T19:26:24.750Z,87.30
2019-05-29T19:28:53.309Z,87.60
2019-05-29T19:31:22.886Z,88.00
2019-05-29T19:33:51.514Z,88.30
2019-05-29T19:36:39.355Z,88.60
2019-05-29T19:39:08.431Z,88.70
2019-05-29T19:41:37.740Z,88.90
2019-05-29T19:44:06.107Z,89.10
2019-05-29T19:46:52.818Z,89.50
2019-05-29T19:49:04.568Z,89.70
2019-05-29T19:51:33.465Z,89.80
2019-05-29T19:54:01.986Z,90.00
2019-05-29T19:56:30.418Z,89.80
2019-05-29T19:58:58.786Z,90.00
2019-05-29T20:01:32.773Z,90.20
2019-05-29T20:03:57.339Z,90.30
2019-05-29T20:06:26.853Z,90.00
2019-05-29T20:08:55.498Z,90.10
2019-05-29T20:11:27.689Z,90.20
2019-05-29T20:13:56.205Z,90.10
2019-05-29T20:16:24.627Z,90.30
2019-05-29T20:18:53.371Z,90.40
2019-05-29T20:21:21.841Z,90.50
2019-05-29T20:23:50.186Z,90.50
2019-05-29T20:26:18.584Z,90.50
2019-05-29T20:28:46.989Z,90.60
2019-05-29T20:31:15.436Z,90.60
2019-05-29T20:33:43.796Z,90.70
2019-05-29T20:36:12.234Z,90.90
2019-05-29T20:38:41.373Z,91.00
2019-05-29T20:41:09.902Z,90.90
2019-05-29T20:43:39.641Z,90.90
2019-05-29T20:46:08.310Z,91.00
2019-05-29T20:48:36.771Z,91.20
2019-05-29T20:51:05.204Z,91.20
2019-05-29T20:53:33.550Z,91.20
2019-05-29T20:56:01.952Z,91.20
2019-05-29T20:58:31.538Z,91.10
2019-05-29T21:01:03.206Z,91.10
2019-05-29T21:03:30.414Z,91.40
2019-05-29T21:05:58.791Z,91.00
2019-05-29T21:08:27.243Z,91.00
2019-05-29T21:10:55.666Z,91.10
2019-05-29T21:13:24.024Z,91.10
2019-05-29T21:15:52.512Z,91.00
2019-05-29T21:18:20.889Z,91.00
2019-05-29T21:20:49.339Z,91.00
2019-05-29T21:23:17.726Z,90.60
2019-05-29T21:25:58.547Z,90.80
2019-05-29T21:28:39.241Z,91.50
2019-05-29T21:30:56.955Z,92.10
2019-05-29T21:33:25.350Z,92.30
2019-05-29T21:35:54.625Z,92.40
2019-05-29T21:38:23.057Z,92.60
2019-05-29T21:40:51.464Z,92.80
2019-05-29T21:43:19.816Z,92.70
2019-05-29T21:45:48.273Z,93.10
2019-05-29T21:48:16.679Z,92.60
2019-05-29T21:50:45.421Z,92.30
2019-05-29T21:53:13.871Z,92.60
2019-05-29T21:55:43.575Z,92.60
2019-05-29T21:58:12.156Z,92.30
2019-05-29T22:00:42.549Z,92.50
2019-05-29T22:03:10.874Z,92.60
2019-05-29T22:05:40.454Z,92.70
2019-05-29T22:08:08.892Z,92.40
2019-05-29T22:10:37.255Z,92.30
2019-05-29T22:13:05.660Z,92.60
2019-05-29T22:15:34.214Z,92.20
2019-05-29T22:18:02.575Z,92.40
2019-05-29T22:20:30.978Z,92.10
2019-05-29T22:22:59.347Z,92.00
2019-05-29T22:25:27.726Z,92.20
2019-05-29T22:27:57.389Z,91.90
2019-05-29T22:30:25.821Z,91.80
2019-05-29T22:32:55.275Z,91.90
2019-05-29T22:35:24.815Z,91.90
2019-05-29T22:37:53.525Z,92.00
2019-05-29T22:40:22.035Z,92.20
2019-05-29T22:42:51.374Z,92.10
2019-05-29T22:45:19.771Z,92.10
2019-05-29T22:47:48.121Z,92.30
2019-05-29T22:50:16.466Z,92.30
2019-05-29T22:52:44.876Z,92.40
2019-05-29T22:55:13.286Z,92.60
2019-05-29T22:57:41.710Z,92.60
2019-05-29T23:00:10.325Z,92.90
2019-05-29T23:02:38.754Z,92.90
2019-05-29T23:05:07.502Z,93.10
2019-05-29T23:07:35.922Z,93.20
2019-05-29T23:10:07.568Z,93.30
2019-05-29T23:12:36.011Z,93.40
2019-05-29T23:15:05.736Z,93.40
2019-05-29T23:17:34.101Z,93.30
2019-05-29T23:20:04.137Z,93.50
2019-05-29T23:22:32.687Z,93.80
2019-05-29T23:25:01.091Z,94.00
2019-05-29T23:27:29.534Z,94.30
2019-05-29T23:29:58.980Z,94.40
2019-05-29T23:32:27.402Z,94.40
2019-05-29T23:34:57.075Z,94.70
2019-05-29T23:37:25.670Z,94.90
2019-05-29T23:39:54.831Z,94.80
2019-05-29T23:42:23.701Z,95.10
2019-05-29T23:44:52.760Z,95.40
2019-05-29T23:47:22.144Z,95.40
2019-05-29T23:49:50.468Z,95.50
2019-05-29T23:52:18.810Z,95.60
2019-05-29T23:54:47.174Z,95.70
2019-05-29T23:57:15.560Z,95.80
2019-05-29T23:59:43.931Z,95.90
